sensor_id;sensor_type;location;lat;lon;timestamp;pressure;altitude;pressure_sealevel;temperature
79172;BMP280;68597;53.238;-1.418;2023-04-12T00:01:29;98411.19;;;7.75
79172;BMP280;68597;53.238;-1.418;2023-04-12T00:03:54;98422.88;;;7.73
79172;BMP280;68597;53.238;-1.418;2023-04-12T00:06:20;98418.63;;;7.72
79172;BMP280;68597;53.238;-1.418;2023-04-12T00:08:45;98424.72;;;7.71
79172;BMP280;68597;53.238;-1.418;2023-04-12T00:11:12;98419.72;;;7.69
79172;BMP280;68597;53.238;-1.418;2023-04-12T00:13:38;98418.22;;;7.68
79172;BMP280;68597;53.238;-1.418;2023-04-12T00:16:04;98433.44;;;7.67
79172;BMP280;68597;53.238;-1.418;2023-04-12T00:18:30;98420.84;;;7.66
79172;BMP280;68597;53.238;-1.418;2023-04-12T00:20:55;98439.56;;;7.66
79172;BMP280;68597;53.238;-1.418;2023-04-12T00:23:21;98438.41;;;7.69
79172;BMP280;68597;53.238;-1.418;2023-04-12T00:25:46;98441.78;;;7.67
79172;BMP280;68597;53.238;-1.418;2023-04-12T00:28:14;98445.69;;;7.64
79172;BMP280;68597;53.238;-1.418;2023-04-12T00:30:39;98451.22;;;7.64
79172;BMP280;68597;53.238;-1.418;2023-04-12T00:33:05;98456.44;;;7.60
79172;BMP280;68597;53.238;-1.418;2023-04-12T00:35:31;98460.84;;;7.63
79172;BMP280;68597;53.238;-1.418;2023-04-12T00:37:56;98466.25;;;7.61
79172;BMP280;68597;53.238;-1.418;2023-04-12T00:40:22;98459.00;;;7.58
79172;BMP280;68597;53.238;-1.418;2023-04-12T00:42:47;98460.50;;;7.59
79172;BMP280;68597;53.238;-1.418;2023-04-12T00:45:14;98454.59;;;7.55
79172;BMP280;68597;53.238;-1.418;2023-04-12T00:47:41;98440.50;;;7.53
79172;BMP280;68597;53.238;-1.418;2023-04-12T00:50:07;98450.16;;;7.52
79172;BMP280;68597;53.238;-1.418;2023-04-12T00:52:34;98451.28;;;7.49
79172;BMP280;68597;53.238;-1.418;2023-04-12T00:55:00;98446.81;;;7.46
79172;BMP280;68597;53.238;-1.418;2023-04-12T00:57:25;98451.31;;;7.41
79172;BMP280;68597;53.238;-1.418;2023-04-12T00:59:51;98446.84;;;7.38
79172;BMP280;68597;53.238;-1.418;2023-04-12T01:02:18;98411.38;;;7.07
79172;BMP280;68597;53.238;-1.418;2023-04-12T01:04:44;98449.06;;;7.32
79172;BMP280;68597;53.238;-1.418;2023-04-12T01:07:18;98444.66;;;7.29
79172;BMP280;68597;53.238;-1.418;2023-04-12T01:09:52;98417.50;;;7.13
79172;BMP280;68597;53.238;-1.418;2023-04-12T01:12:32;98418.41;;;7.15
79172;BMP280;68597;53.238;-1.418;2023-04-12T01:15:03;98440.59;;;7.23
79172;BMP280;68597;53.238;-1.418;2023-04-12T01:17:37;98439.31;;;7.16
79172;BMP280;68597;53.238;-1.418;2023-04-12T01:20:07;98436.16;;;7.20
79172;BMP280;68597;53.238;-1.418;2023-04-12T01:22:44;98433.94;;;7.18
79172;BMP280;68597;53.238;-1.418;2023-04-12T01:25:36;98430.44;;;7.18
79172;BMP280;68597;53.238;-1.418;2023-04-12T01:28:04;98445.78;;;7.19
79172;BMP280;68597;53.238;-1.418;2023-04-12T01:30:30;98446.91;;;7.16
79172;BMP280;68597;53.238;-1.418;2023-04-12T01:32:59;98441.34;;;7.16
79172;BMP280;68597;53.238;-1.418;2023-04-12T01:35:27;98416.78;;;7.04
79172;BMP280;68597;53.238;-1.418;2023-04-12T01:37:53;98418.03;;;7.11
79172;BMP280;68597;53.238;-1.418;2023-04-12T01:40:19;98438.78;;;7.18
79172;BMP280;68597;53.238;-1.418;2023-04-12T01:42:45;98433.22;;;7.18
79172;BMP280;68597;53.238;-1.418;2023-04-12T01:45:12;98437.28;;;7.17
79172;BMP280;68597;53.238;-1.418;2023-04-12T01:47:38;98441.34;;;7.16
79172;BMP280;68597;53.238;-1.418;2023-04-12T01:50:13;98441.34;;;7.16
79172;BMP280;68597;53.238;-1.418;2023-04-12T01:52:42;98433.03;;;7.16
79172;BMP280;68597;53.238;-1.418;2023-04-12T01:55:10;98415.84;;;7.02
79172;BMP280;68597;53.238;-1.418;2023-04-12T01:57:37;98422.09;;;7.10
79172;BMP280;68597;53.238;-1.418;2023-04-12T02:00:05;98439.13;;;7.07
79172;BMP280;68597;53.238;-1.418;2023-04-12T02:02:40;98443.38;;;7.08
79172;BMP280;68597;53.238;-1.418;2023-04-12T02:05:08;98435.63;;;6.98
79172;BMP280;68597;53.238;-1.418;2023-04-12T02:07:34;98422.84;;;7.03
79172;BMP280;68597;53.238;-1.418;2023-04-12T02:10:00;98432.47;;;6.94
79172;BMP280;68597;53.238;-1.418;2023-04-12T02:12:25;98438.03;;;6.94
79172;BMP280;68597;53.238;-1.418;2023-04-12T02:14:51;98439.34;;;6.93
79172;BMP280;68597;53.238;-1.418;2023-04-12T02:17:16;98425.09;;;6.82
79172;BMP280;68597;53.238;-1.418;2023-04-12T02:19:43;98437.69;;;6.90
79172;BMP280;68597;53.238;-1.418;2023-04-12T02:22:10;98443.03;;;6.88
79172;BMP280;68597;53.238;-1.418;2023-04-12T02:24:36;98452.44;;;6.85
79172;BMP280;68597;53.238;-1.418;2023-04-12T02:27:01;98435.47;;;6.81
79172;BMP280;68597;53.238;-1.418;2023-04-12T02:29:27;98439.16;;;6.76
79172;BMP280;68597;53.238;-1.418;2023-04-12T02:31:53;98415.09;;;6.56
79172;BMP280;68597;53.238;-1.418;2023-04-12T02:34:21;98431.38;;;6.67
79172;BMP280;68597;53.238;-1.418;2023-04-12T02:36:56;98453.94;;;6.71
79172;BMP280;68597;53.238;-1.418;2023-04-12T02:39:22;98443.94;;;6.68
79172;BMP280;68597;53.238;-1.418;2023-04-12T02:41:49;98454.69;;;6.64
79172;BMP280;68597;53.238;-1.418;2023-04-12T02:44:15;98456.88;;;6.58
79172;BMP280;68597;53.238;-1.418;2023-04-12T02:46:47;98436.53;;;6.48
79172;BMP280;68597;53.238;-1.418;2023-04-12T02:49:14;98449.66;;;6.55
79172;BMP280;68597;53.238;-1.418;2023-04-12T02:51:40;98434.34;;;6.54
79172;BMP280;68597;53.238;-1.418;2023-04-12T02:54:08;98440.97;;;6.51
79172;BMP280;68597;53.238;-1.418;2023-04-12T02:56:50;98439.13;;;6.46
79172;BMP280;68597;53.238;-1.418;2023-04-12T02:59:36;98426.53;;;6.45
79172;BMP280;68597;53.238;-1.418;2023-04-12T03:02:09;98441.69;;;6.44
79172;BMP280;68597;53.238;-1.418;2023-04-12T03:04:35;98435.41;;;6.43
79172;BMP280;68597;53.238;-1.418;2023-04-12T03:07:00;98419.91;;;6.40
79172;BMP280;68597;53.238;-1.418;2023-04-12T03:09:42;98426.53;;;6.37
79172;BMP280;68597;53.238;-1.418;2023-04-12T03:12:09;98433.94;;;6.35
79172;BMP280;68597;53.238;-1.418;2023-04-12T03:14:41;98434.84;;;6.30
79172;BMP280;68597;53.238;-1.418;2023-04-12T03:17:07;98426.53;;;6.30
79172;BMP280;68597;53.238;-1.418;2023-04-12T03:19:35;98429.13;;;6.28
79172;BMP280;68597;53.238;-1.418;2023-04-12T03:22:01;98431.69;;;6.26
79172;BMP280;68597;53.238;-1.418;2023-04-12T03:24:28;98425.38;;;6.18
79172;BMP280;68597;53.238;-1.418;2023-04-12T03:26:55;98429.44;;;6.17
79172;BMP280;68597;53.238;-1.418;2023-04-12T03:29:24;98428.69;;;6.16
79172;BMP280;68597;53.238;-1.418;2023-04-12T03:31:51;98423.72;;;6.15
79172;BMP280;68597;53.238;-1.418;2023-04-12T03:34:17;98429.09;;;6.13
79172;BMP280;68597;53.238;-1.418;2023-04-12T03:36:47;98419.84;;;6.10
79172;BMP280;68597;53.238;-1.418;2023-04-12T03:39:21;98413.56;;;6.09
79172;BMP280;68597;53.238;-1.418;2023-04-12T03:41:50;98416.31;;;6.09
79172;BMP280;68597;53.238;-1.418;2023-04-12T03:44:18;98410.19;;;6.03
79172;BMP280;68597;53.238;-1.418;2023-04-12T03:46:44;98410.00;;;6.01
79172;BMP280;68597;53.238;-1.418;2023-04-12T03:49:10;98409.31;;;6.01
79172;BMP280;68597;53.238;-1.418;2023-04-12T03:51:36;98366.22;;;5.77
79172;BMP280;68597;53.238;-1.418;2023-04-12T03:54:02;98406.88;;;5.97
79172;BMP280;68597;53.238;-1.418;2023-04-12T03:56:32;98405.38;;;5.96
79172;BMP280;68597;53.238;-1.418;2023-04-12T03:59:01;98413.53;;;5.94
79172;BMP280;68597;53.238;-1.418;2023-04-12T04:01:29;98402.03;;;5.90
79172;BMP280;68597;53.238;-1.418;2023-04-12T04:03:54;98409.59;;;5.90
79172;BMP280;68597;53.238;-1.418;2023-04-12T04:06:24;98398.31;;;5.80
79172;BMP280;68597;53.238;-1.418;2023-04-12T04:08:53;98411.28;;;5.85
79172;BMP280;68597;53.238;-1.418;2023-04-12T04:11:19;98413.44;;;5.79
79172;BMP280;68597;53.238;-1.418;2023-04-12T04:13:49;98410.34;;;5.83
79172;BMP280;68597;53.238;-1.418;2023-04-12T04:16:18;98406.84;;;5.82
79172;BMP280;68597;53.238;-1.418;2023-04-12T04:18:45;98391.72;;;5.83
79172;BMP280;68597;53.238;-1.418;2023-04-12T04:21:13;98381.91;;;5.82
79172;BMP280;68597;53.238;-1.418;2023-04-12T04:23:39;98384.69;;;5.82
79172;BMP280;68597;53.238;-1.418;2023-04-12T04:26:07;98376.19;;;5.80
79172;BMP280;68597;53.238;-1.418;2023-04-12T04:28:33;98370.63;;;5.80
79172;BMP280;68597;53.238;-1.418;2023-04-12T04:30:59;98358.06;;;5.79
79172;BMP280;68597;53.238;-1.418;2023-04-12T04:33:25;98356.59;;;5.78
79172;BMP280;68597;53.238;-1.418;2023-04-12T04:35:56;98346.63;;;5.75
79172;BMP280;68597;53.238;-1.418;2023-04-12T04:38:24;98334.41;;;5.63
79172;BMP280;68597;53.238;-1.418;2023-04-12T04:40:51;98321.66;;;5.52
79172;BMP280;68597;53.238;-1.418;2023-04-12T04:43:17;98347.34;;;5.68
79172;BMP280;68597;53.238;-1.418;2023-04-12T04:45:45;98344.38;;;5.66
79172;BMP280;68597;53.238;-1.418;2023-04-12T04:48:10;98345.47;;;5.63
79172;BMP280;68597;53.238;-1.418;2023-04-12T04:50:36;98346.56;;;5.60
79172;BMP280;68597;53.238;-1.418;2023-04-12T04:53:04;98340.66;;;5.56
79172;BMP280;68597;53.238;-1.418;2023-04-12T04:55:31;98341.78;;;5.53
79172;BMP280;68597;53.238;-1.418;2023-04-12T04:57:57;98328.81;;;5.48
79172;BMP280;68597;53.238;-1.418;2023-04-12T05:00:23;98338.81;;;5.51
79172;BMP280;68597;53.238;-1.418;2023-04-12T05:02:53;98339.88;;;5.48
79172;BMP280;68597;53.238;-1.418;2023-04-12T05:05:25;98339.88;;;5.48
79172;BMP280;68597;53.238;-1.418;2023-04-12T05:07:57;98332.47;;;5.43
79172;BMP280;68597;53.238;-1.418;2023-04-12T05:10:26;98332.47;;;5.43
79172;BMP280;68597;53.238;-1.418;2023-04-12T05:12:52;98332.47;;;5.43
79172;BMP280;68597;53.238;-1.418;2023-04-12T05:15:18;98325.31;;;5.40
79172;BMP280;68597;53.238;-1.418;2023-04-12T05:17:44;98322.53;;;5.40
79172;BMP280;68597;53.238;-1.418;2023-04-12T05:20:09;98316.78;;;5.38
79172;BMP280;68597;53.238;-1.418;2023-04-12T05:22:36;98326.38;;;5.37
79172;BMP280;68597;53.238;-1.418;2023-04-12T05:25:02;98322.16;;;5.36
79172;BMP280;68597;53.238;-1.418;2023-04-12T05:27:32;98307.38;;;5.33
79172;BMP280;68597;53.238;-1.418;2023-04-12T05:29:59;98312.53;;;5.37
79172;BMP280;68597;53.238;-1.418;2023-04-12T05:32:25;98303.66;;;5.31
79172;BMP280;68597;53.238;-1.418;2023-04-12T05:34:51;98304.75;;;5.28
79172;BMP280;68597;53.238;-1.418;2023-04-12T05:37:17;98319.19;;;5.34
79172;BMP280;68597;53.238;-1.418;2023-04-12T05:39:42;98312.16;;;5.33
79172;BMP280;68597;53.238;-1.418;2023-04-12T05:42:08;98317.91;;;5.35
79172;BMP280;68597;53.238;-1.418;2023-04-12T05:44:37;98320.66;;;5.35
79172;BMP280;68597;53.238;-1.418;2023-04-12T05:47:05;98318.06;;;5.37
79172;BMP280;68597;53.238;-1.418;2023-04-12T05:49:31;98311.09;;;5.36
79172;BMP280;68597;53.238;-1.418;2023-04-12T05:51:57;98287.81;;;5.24
79172;BMP280;68597;53.238;-1.418;2023-04-12T05:54:23;98308.88;;;5.42
79172;BMP280;68597;53.238;-1.418;2023-04-12T05:56:51;98321.41;;;5.43
79172;BMP280;68597;53.238;-1.418;2023-04-12T05:59:17;98291.13;;;5.30
79172;BMP280;68597;53.238;-1.418;2023-04-12T06:01:44;98328.81;;;5.48
79172;BMP280;68597;53.238;-1.418;2023-04-12T06:04:10;98320.91;;;5.52
79172;BMP280;68597;53.238;-1.418;2023-04-12T06:06:37;98321.84;;;5.54
79172;BMP280;68597;53.238;-1.418;2023-04-12T06:09:02;98330.31;;;5.56
79172;BMP280;68597;53.238;-1.418;2023-04-12T06:11:28;98296.31;;;5.33
79172;BMP280;68597;53.238;-1.418;2023-04-12T06:13:54;98334.41;;;5.63
79172;BMP280;68597;53.238;-1.418;2023-04-12T06:16:20;98325.00;;;5.66
79172;BMP280;68597;53.238;-1.418;2023-04-12T06:18:47;98320.41;;;5.69
79172;BMP280;68597;53.238;-1.418;2023-04-12T06:21:14;98321.34;;;5.71
79172;BMP280;68597;53.238;-1.418;2023-04-12T06:23:41;98314.69;;;5.74
79172;BMP280;68597;53.238;-1.418;2023-04-12T06:26:06;98313.41;;;5.75
79172;BMP280;68597;53.238;-1.418;2023-04-12T06:28:32;98304.56;;;5.69
79172;BMP280;68597;53.238;-1.418;2023-04-12T06:30:57;98305.63;;;5.74
79172;BMP280;68597;53.238;-1.418;2023-04-12T06:33:24;98313.25;;;5.81
79172;BMP280;68597;53.238;-1.418;2023-04-12T06:35:52;98309.94;;;5.82
79172;BMP280;68597;53.238;-1.418;2023-04-12T06:38:18;98307.16;;;5.82
79172;BMP280;68597;53.238;-1.418;2023-04-12T06:40:43;98300.16;;;5.81
79172;BMP280;68597;53.238;-1.418;2023-04-12T06:43:09;98308.66;;;5.83
79172;BMP280;68597;53.238;-1.418;2023-04-12T06:45:35;98320.44;;;5.84
79172;BMP280;68597;53.238;-1.418;2023-04-12T06:48:00;98322.66;;;5.85
79172;BMP280;68597;53.238;-1.418;2023-04-12T06:50:26;98321.38;;;5.86
79172;BMP280;68597;53.238;-1.418;2023-04-12T06:52:53;98314.75;;;5.89
79172;BMP280;68597;53.238;-1.418;2023-04-12T06:55:18;98309.56;;;5.93
79172;BMP280;68597;53.238;-1.418;2023-04-12T06:57:44;98307.53;;;6.01
79172;BMP280;68597;53.238;-1.418;2023-04-12T07:00:10;98306.81;;;6.16
79172;BMP280;68597;53.238;-1.418;2023-04-12T07:02:36;98306.47;;;6.35
79172;BMP280;68597;53.238;-1.418;2023-04-12T07:05:02;98298.31;;;6.52
79172;BMP280;68597;53.238;-1.418;2023-04-12T07:07:27;98308.28;;;6.70
79172;BMP280;68597;53.238;-1.418;2023-04-12T07:09:54;98309.34;;;6.82
79172;BMP280;68597;53.238;-1.418;2023-04-12T07:12:20;98305.63;;;6.95
79172;BMP280;68597;53.238;-1.418;2023-04-12T07:14:45;98279.53;;;6.98
79172;BMP280;68597;53.238;-1.418;2023-04-12T07:17:11;98294.47;;;7.18
79172;BMP280;68597;53.238;-1.418;2023-04-12T07:19:36;98285.00;;;7.21
79172;BMP280;68597;53.238;-1.418;2023-04-12T07:22:02;98281.63;;;7.30
79172;BMP280;68597;53.238;-1.418;2023-04-12T07:24:27;98279.41;;;7.36
79172;BMP280;68597;53.238;-1.418;2023-04-12T07:26:54;98279.41;;;7.36
79172;BMP280;68597;53.238;-1.418;2023-04-12T07:29:20;98275.69;;;7.41
79172;BMP280;68597;53.238;-1.418;2023-04-12T07:31:45;98273.22;;;7.45
79172;BMP280;68597;53.238;-1.418;2023-04-12T07:34:11;98288.44;;;7.44
79172;BMP280;68597;53.238;-1.418;2023-04-12T07:36:36;98272.78;;;7.56
79172;BMP280;68597;53.238;-1.418;2023-04-12T07:39:02;98270.75;;;7.57
79172;BMP280;68597;53.238;-1.418;2023-04-12T07:41:28;98256.50;;;7.60
79172;BMP280;68597;53.238;-1.418;2023-04-12T07:43:54;98258.19;;;7.80
79172;BMP280;68597;53.238;-1.418;2023-04-12T07:46:20;98258.88;;;7.88
79172;BMP280;68597;53.238;-1.418;2023-04-12T07:48:45;98254.50;;;7.85
79172;BMP280;68597;53.238;-1.418;2023-04-12T07:51:11;98262.19;;;7.94
79172;BMP280;68597;53.238;-1.418;2023-04-12T07:53:37;98267.00;;;7.94
79172;BMP280;68597;53.238;-1.418;2023-04-12T07:56:03;98267.41;;;7.90
79172;BMP280;68597;53.238;-1.418;2023-04-12T07:58:28;98264.13;;;7.84
79172;BMP280;68597;53.238;-1.418;2023-04-12T08:00:55;98260.06;;;7.85
79172;BMP280;68597;53.238;-1.418;2023-04-12T08:03:21;98257.09;;;7.83
79172;BMP280;68597;53.238;-1.418;2023-04-12T08:05:46;98265.44;;;7.83
79172;BMP280;68597;53.238;-1.418;2023-04-12T08:08:12;98232.38;;;7.70
79172;BMP280;68597;53.238;-1.418;2023-04-12T08:10:38;98262.50;;;7.98
79172;BMP280;68597;53.238;-1.418;2023-04-12T08:13:04;98254.69;;;8.05
79172;BMP280;68597;53.238;-1.418;2023-04-12T08:15:30;98248.00;;;8.08
79172;BMP280;68597;53.238;-1.418;2023-04-12T08:17:57;98224.53;;;8.18
79172;BMP280;68597;53.238;-1.418;2023-04-12T08:20:22;98218.94;;;8.26
79172;BMP280;68597;53.238;-1.418;2023-04-12T08:22:48;98220.31;;;8.34
79172;BMP280;68597;53.238;-1.418;2023-04-12T08:25:14;98206.69;;;8.29
79172;BMP280;68597;53.238;-1.418;2023-04-12T08:27:41;98213.38;;;8.26
79172;BMP280;68597;53.238;-1.418;2023-04-12T08:30:07;98216.16;;;8.26
79172;BMP280;68597;53.238;-1.418;2023-04-12T08:32:33;98215.69;;;8.37
79172;BMP280;68597;53.238;-1.418;2023-04-12T08:35:00;98204.88;;;8.58
79172;BMP280;68597;53.238;-1.418;2023-04-12T08:37:26;98199.13;;;8.73
79172;BMP280;68597;53.238;-1.418;2023-04-12T08:39:51;98198.91;;;8.79
79172;BMP280;68597;53.238;-1.418;2023-04-12T08:42:17;98184.25;;;8.78
79172;BMP280;68597;53.238;-1.418;2023-04-12T08:44:43;98183.47;;;8.95
79172;BMP280;68597;53.238;-1.418;2023-04-12T08:47:10;98203.81;;;9.15
79172;BMP280;68597;53.238;-1.418;2023-04-12T08:49:35;98203.41;;;9.28
79172;BMP280;68597;53.238;-1.418;2023-04-12T08:52:04;98183.41;;;9.39
79172;BMP280;68597;53.238;-1.418;2023-04-12T08:54:30;98183.41;;;9.39
79172;BMP280;68597;53.238;-1.418;2023-04-12T08:56:58;98187.19;;;9.34
79172;BMP280;68597;53.238;-1.418;2023-04-12T08:59:24;98166.91;;;9.24
79172;BMP280;68597;53.238;-1.418;2023-04-12T09:01:51;98158.41;;;9.22
79172;BMP280;68597;53.238;-1.418;2023-04-12T09:04:18;98140.53;;;9.25
79172;BMP280;68597;53.238;-1.418;2023-04-12T09:06:43;98133.69;;;9.35
79172;BMP280;68597;53.238;-1.418;2023-04-12T09:09:10;98127.44;;;9.44
79172;BMP280;68597;53.238;-1.418;2023-04-12T09:11:35;98106.34;;;9.51
79172;BMP280;68597;53.238;-1.418;2023-04-12T09:14:01;98113.66;;;9.56
79172;BMP280;68597;53.238;-1.418;2023-04-12T09:16:34;98092.25;;;9.49
79172;BMP280;68597;53.238;-1.418;2023-04-12T09:19:00;98087.84;;;9.46
79172;BMP280;68597;53.238;-1.418;2023-04-12T09:21:25;98068.81;;;9.52
79172;BMP280;68597;53.238;-1.418;2023-04-12T09:24:01;98057.09;;;9.82
79172;BMP280;68597;53.238;-1.418;2023-04-12T09:26:28;98044.78;;;10.05
79172;BMP280;68597;53.238;-1.418;2023-04-12T09:28:54;98053.25;;;10.26
79172;BMP280;68597;53.238;-1.418;2023-04-12T09:31:21;98035.91;;;10.37
79172;BMP280;68597;53.238;-1.418;2023-04-12T09:33:48;98040.84;;;10.48
79172;BMP280;68597;53.238;-1.418;2023-04-12T09:36:13;98037.31;;;10.57
79172;BMP280;68597;53.238;-1.418;2023-04-12T09:38:39;98035.06;;;10.75
79172;BMP280;68597;53.238;-1.418;2023-04-12T09:41:16;98011.22;;;10.53
79172;BMP280;68597;53.238;-1.418;2023-04-12T09:43:44;98022.69;;;10.47
79172;BMP280;68597;53.238;-1.418;2023-04-12T09:46:10;98021.47;;;10.50
79172;BMP280;68597;53.238;-1.418;2023-04-12T09:48:36;98009.50;;;10.38
79172;BMP280;68597;53.238;-1.418;2023-04-12T09:51:02;98021.38;;;10.38
79172;BMP280;68597;53.238;-1.418;2023-04-12T09:53:28;97991.66;;;10.22
79172;BMP280;68597;53.238;-1.418;2023-04-12T09:55:55;97990.16;;;10.21
79172;BMP280;68597;53.238;-1.418;2023-04-12T09:58:22;97975.09;;;10.05
79172;BMP280;68597;53.238;-1.418;2023-04-12T10:00:49;97991.94;;;10.07
79172;BMP280;68597;53.238;-1.418;2023-04-12T10:03:17;97987.56;;;10.04
79172;BMP280;68597;53.238;-1.418;2023-04-12T10:05:42;98006.38;;;9.93
79172;BMP280;68597;53.238;-1.418;2023-04-12T10:08:10;97985.97;;;9.91
79172;BMP280;68597;53.238;-1.418;2023-04-12T10:10:35;98003.13;;;9.78
79172;BMP280;68597;53.238;-1.418;2023-04-12T10:13:01;97976.31;;;9.63
79172;BMP280;68597;53.238;-1.418;2023-04-12T10:15:28;97959.59;;;9.63
79172;BMP280;68597;53.238;-1.418;2023-04-12T10:17:58;97966.50;;;9.62
79172;BMP280;68597;53.238;-1.418;2023-04-12T10:20:24;97955.03;;;9.58
79172;BMP280;68597;53.238;-1.418;2023-04-12T10:22:51;97952.69;;;9.55
79172;BMP280;68597;53.238;-1.418;2023-04-12T10:25:18;97951.84;;;9.52
79172;BMP280;68597;53.238;-1.418;2023-04-12T10:27:45;97949.66;;;9.51
79172;BMP280;68597;53.238;-1.418;2023-04-12T10:30:28;97952.00;;;9.44
79172;BMP280;68597;53.238;-1.418;2023-04-12T10:33:13;97924.28;;;9.37
79172;BMP280;68597;53.238;-1.418;2023-04-12T10:35:50;97923.66;;;9.29
79172;BMP280;68597;53.238;-1.418;2023-04-12T10:38:16;97900.84;;;9.21
79172;BMP280;68597;53.238;-1.418;2023-04-12T10:41:10;97894.81;;;9.05
79172;BMP280;68597;53.238;-1.418;2023-04-12T10:43:35;97881.16;;;8.99
79172;BMP280;68597;53.238;-1.418;2023-04-12T10:46:01;97884.69;;;8.90
79172;BMP280;68597;53.238;-1.418;2023-04-12T10:48:32;97864.34;;;8.88
79172;BMP280;68597;53.238;-1.418;2023-04-12T10:51:12;97862.16;;;8.86
79172;BMP280;68597;53.238;-1.418;2023-04-12T10:53:37;97839.59;;;8.82
79172;BMP280;68597;53.238;-1.418;2023-04-12T10:56:35;97857.91;;;8.85
79172;BMP280;68597;53.238;-1.418;2023-04-12T10:59:02;97829.50;;;8.77
79172;BMP280;68597;53.238;-1.418;2023-04-12T11:01:32;97831.97;;;8.83
79172;BMP280;68597;53.238;-1.418;2023-04-12T11:04:20;97813.22;;;8.83
79172;BMP280;68597;53.238;-1.418;2023-04-12T11:07:06;97796.53;;;8.83
79172;BMP280;68597;53.238;-1.418;2023-04-12T11:09:41;97793.03;;;8.92
79172;BMP280;68597;53.238;-1.418;2023-04-12T11:12:11;97799.34;;;9.03
79172;BMP280;68597;53.238;-1.418;2023-04-12T11:14:43;97790.38;;;9.14
79172;BMP280;68597;53.238;-1.418;2023-04-12T11:17:19;97771.06;;;9.16
79172;BMP280;68597;53.238;-1.418;2023-04-12T11:19:49;97781.84;;;9.31
79172;BMP280;68597;53.238;-1.418;2023-04-12T11:22:16;97758.31;;;9.13
79172;BMP280;68597;53.238;-1.418;2023-04-12T11:24:43;97782.56;;;9.41
79172;BMP280;68597;53.238;-1.418;2023-04-12T11:27:09;97782.41;;;9.48
79172;BMP280;68597;53.238;-1.418;2023-04-12T11:29:35;97775.22;;;9.45
79172;BMP280;68597;53.238;-1.418;2023-04-12T11:32:01;97764.09;;;9.45
79172;BMP280;68597;53.238;-1.418;2023-04-12T11:34:31;97764.38;;;9.50
79172;BMP280;68597;53.238;-1.418;2023-04-12T11:36:58;97779.59;;;9.48
79172;BMP280;68597;53.238;-1.418;2023-04-12T11:39:25;97778.63;;;9.44
79172;BMP280;68597;53.238;-1.418;2023-04-12T11:41:51;97771.88;;;9.37
79172;BMP280;68597;53.238;-1.418;2023-04-12T11:44:17;97780.13;;;9.26
79172;BMP280;68597;53.238;-1.418;2023-04-12T11:46:42;97764.91;;;9.08
79172;BMP280;68597;53.238;-1.418;2023-04-12T11:49:08;97752.34;;;8.87
79172;BMP280;68597;53.238;-1.418;2023-04-12T11:51:34;97760.81;;;8.80
79172;BMP280;68597;53.238;-1.418;2023-04-12T11:54:01;97750.88;;;8.67
79172;BMP280;68597;53.238;-1.418;2023-04-12T11:56:27;97747.66;;;8.61
79172;BMP280;68597;53.238;-1.418;2023-04-12T11:58:53;97722.59;;;8.52
79172;BMP280;68597;53.238;-1.418;2023-04-12T12:01:19;97698.81;;;8.39
79172;BMP280;68597;53.238;-1.418;2023-04-12T12:03:45;97699.81;;;8.43
79172;BMP280;68597;53.238;-1.418;2023-04-12T12:06:11;97698.34;;;8.42
79172;BMP280;68597;53.238;-1.418;2023-04-12T12:08:38;97693.81;;;8.47
79172;BMP280;68597;53.238;-1.418;2023-04-12T12:11:06;97676.81;;;8.43
79172;BMP280;68597;53.238;-1.418;2023-04-12T12:13:42;97663.66;;;8.34
79172;BMP280;68597;53.238;-1.418;2023-04-12T12:16:09;97683.72;;;8.32
79172;BMP280;68597;53.238;-1.418;2023-04-12T12:18:38;97670.13;;;8.27
79172;BMP280;68597;53.238;-1.418;2023-04-12T12:21:07;97658.09;;;8.15
79172;BMP280;68597;53.238;-1.418;2023-04-12T12:23:32;97676.25;;;8.25
79172;BMP280;68597;53.238;-1.418;2023-04-12T12:25:59;97651.81;;;8.24
79172;BMP280;68597;53.238;-1.418;2023-04-12T12:28:26;97648.44;;;8.16
79172;BMP280;68597;53.238;-1.418;2023-04-12T12:30:52;97615.13;;;7.96
79172;BMP280;68597;53.238;-1.418;2023-04-12T12:33:18;97642.31;;;8.08
79172;BMP280;68597;53.238;-1.418;2023-04-12T12:35:44;97630.88;;;8.23
79172;BMP280;68597;53.238;-1.418;2023-04-12T12:38:09;97612.88;;;8.33
79172;BMP280;68597;53.238;-1.418;2023-04-12T12:40:35;97612.28;;;8.54
79172;BMP280;68597;53.238;-1.418;2023-04-12T12:43:00;97607.16;;;8.60
79172;BMP280;68597;53.238;-1.418;2023-04-12T12:45:28;97621.22;;;8.62
79172;BMP280;68597;53.238;-1.418;2023-04-12T12:47:57;97600.16;;;8.59
79172;BMP280;68597;53.238;-1.418;2023-04-12T12:50:24;97610.63;;;8.70
79172;BMP280;68597;53.238;-1.418;2023-04-12T12:52:51;97600.56;;;8.75
79172;BMP280;68597;53.238;-1.418;2023-04-12T12:55:17;97577.25;;;8.70
79172;BMP280;68597;53.238;-1.418;2023-04-12T12:57:44;97577.00;;;8.66
79172;BMP280;68597;53.238;-1.418;2023-04-12T13:00:11;97514.41;;;8.46
79172;BMP280;68597;53.238;-1.418;2023-04-12T13:02:38;97559.53;;;8.85
79172;BMP280;68597;53.238;-1.418;2023-04-12T13:05:05;97548.22;;;8.92
79172;BMP280;68597;53.238;-1.418;2023-04-12T13:07:30;97558.56;;;9.02
79172;BMP280;68597;53.238;-1.418;2023-04-12T13:09:56;97533.06;;;9.05
79172;BMP280;68597;53.238;-1.418;2023-04-12T13:12:22;97555.16;;;9.13
79172;BMP280;68597;53.238;-1.418;2023-04-12T13:14:47;97558.41;;;9.30
79172;BMP280;68597;53.238;-1.418;2023-04-12T13:17:13;97523.03;;;9.64
79172;BMP280;68597;53.238;-1.418;2023-04-12T13:19:40;97519.31;;;10.04
79172;BMP280;68597;53.238;-1.418;2023-04-12T13:22:06;97513.81;;;10.38
79172;BMP280;68597;53.238;-1.418;2023-04-12T13:24:31;97515.53;;;10.55
79172;BMP280;68597;53.238;-1.418;2023-04-12T13:26:57;97533.00;;;10.67
79172;BMP280;68597;53.238;-1.418;2023-04-12T13:29:22;97498.44;;;10.84
79172;BMP280;68597;53.238;-1.418;2023-04-12T13:31:48;97490.53;;;10.92
79172;BMP280;68597;53.238;-1.418;2023-04-12T13:34:13;97486.41;;;11.05
79172;BMP280;68597;53.238;-1.418;2023-04-12T13:36:40;97485.41;;;11.12
79172;BMP280;68597;53.238;-1.418;2023-04-12T13:39:06;97465.25;;;11.13
79172;BMP280;68597;53.238;-1.418;2023-04-12T13:41:31;97479.31;;;11.27
79172;BMP280;68597;53.238;-1.418;2023-04-12T13:43:57;97482.63;;;11.48
79172;BMP280;68597;53.238;-1.418;2023-04-12T13:46:22;97478.34;;;11.59
79172;BMP280;68597;53.238;-1.418;2023-04-12T13:48:48;97475.56;;;11.59
79172;BMP280;68597;53.238;-1.418;2023-04-12T13:51:13;97488.91;;;11.61
79172;BMP280;68597;53.238;-1.418;2023-04-12T13:53:40;97477.06;;;11.48
79172;BMP280;68597;53.238;-1.418;2023-04-12T13:56:06;97463.91;;;11.51
79172;BMP280;68597;53.238;-1.418;2023-04-12T13:58:32;97476.56;;;11.52
79172;BMP280;68597;53.238;-1.418;2023-04-12T14:00:57;97479.47;;;11.54
79172;BMP280;68597;53.238;-1.418;2023-04-12T14:03:23;97459.31;;;11.44
79172;BMP280;68597;53.238;-1.418;2023-04-12T14:05:48;97484.13;;;11.38
79172;BMP280;68597;53.238;-1.418;2023-04-12T14:08:13;97457.59;;;11.14